sensor_id;sensor_type;location;lat;lon;timestamp;P1;durP1;ratioP1;P2;durP2;ratioP2
36445;SDS011;22472;50.848;-1.216;2024-02-14T00:02:26;159.05;;;14.23;;
36445;SDS011;22472;50.848;-1.216;2024-02-14T00:04:53;138.30;;;13.65;;
36445;SDS011;22472;50.848;-1.216;2024-02-14T00:07:20;108.80;;;13.02;;
36445;SDS011;22472;50.848;-1.216;2024-02-14T00:09:48;155.55;;;14.07;;
36445;SDS011;22472;50.848;-1.216;2024-02-14T00:12:15;125.55;;;12.23;;
36445;SDS011;22472;50.848;-1.216;2024-02-14T00:14:44;102.07;;;11.18;;
36445;SDS011;22472;50.848;-1.216;2024-02-14T00:17:11;87.43;;;9.73;;
36445;SDS011;22472;50.848;-1.216;2024-02-14T00:19:38;79.57;;;9.25;;
36445;SDS011;22472;50.848;-1.216;2024-02-14T00:22:06;80.00;;;9.48;;
36445;SDS011;22472;50.848;-1.216;2024-02-14T00:24:33;83.85;;;9.45;;
36445;SDS011;22472;50.848;-1.216;2024-02-14T00:27:01;76.55;;;9.57;;
36445;SDS011;22472;50.848;-1.216;2024-02-14T00:29:28;111.63;;;10.50;;
36445;SDS011;22472;50.848;-1.216;2024-02-14T00:31:57;139.10;;;11.90;;
36445;SDS011;22472;50.848;-1.216;2024-02-14T00:34:24;87.30;;;10.57;;
36445;SDS011;22472;50.848;-1.216;2024-02-14T00:36:52;74.63;;;9.90;;
36445;SDS011;22472;50.848;-1.216;2024-02-14T00:39:19;80.82;;;9.55;;
36445;SDS011;22472;50.848;-1.216;2024-02-14T00:41:46;88.78;;;9.45;;
36445;SDS011;22472;50.848;-1.216;2024-02-14T00:44:14;79.43;;;9.05;;
36445;SDS011;22472;50.848;-1.216;2024-02-14T00:46:44;76.47;;;9.00;;
36445;SDS011;22472;50.848;-1.216;2024-02-14T00:49:12;76.57;;;8.60;;
36445;SDS011;22472;50.848;-1.216;2024-02-14T00:51:40;66.25;;;8.05;;
36445;SDS011;22472;50.848;-1.216;2024-02-14T00:54:07;62.15;;;7.90;;
36445;SDS011;22472;50.848;-1.216;2024-02-14T00:56:34;69.07;;;7.93;;
36445;SDS011;22472;50.848;-1.216;2024-02-14T00:59:01;65.53;;;7.70;;
36445;SDS011;22472;50.848;-1.216;2024-02-14T01:01:29;56.53;;;7.35;;
36445;SDS011;22472;50.848;-1.216;2024-02-14T01:03:56;61.83;;;7.65;;
36445;SDS011;22472;50.848;-1.216;2024-02-14T01:06:24;75.53;;;8.13;;
36445;SDS011;22472;50.848;-1.216;2024-02-14T01:08:52;55.33;;;7.30;;
36445;SDS011;22472;50.848;-1.216;2024-02-14T01:11:19;62.42;;;7.63;;
36445;SDS011;22472;50.848;-1.216;2024-02-14T01:13:46;69.05;;;8.10;;
36445;SDS011;22472;50.848;-1.216;2024-02-14T01:16:13;62.83;;;7.47;;
36445;SDS011;22472;50.848;-1.216;2024-02-14T01:18:41;69.80;;;8.20;;
36445;SDS011;22472;50.848;-1.216;2024-02-14T01:21:08;72.50;;;7.75;;
36445;SDS011;22472;50.848;-1.216;2024-02-14T01:23:37;78.95;;;8.23;;
36445;SDS011;22472;50.848;-1.216;2024-02-14T01:26:04;68.38;;;8.38;;
36445;SDS011;22472;50.848;-1.216;2024-02-14T01:28:32;67.43;;;8.10;;
36445;SDS011;22472;50.848;-1.216;2024-02-14T01:30:59;67.32;;;8.95;;
36445;SDS011;22472;50.848;-1.216;2024-02-14T01:33:26;61.13;;;7.82;;
36445;SDS011;22472;50.848;-1.216;2024-02-14T01:35:55;63.05;;;7.90;;
36445;SDS011;22472;50.848;-1.216;2024-02-14T01:38:23;58.97;;;7.43;;
36445;SDS011;22472;50.848;-1.216;2024-02-14T01:40:52;46.90;;;6.35;;
36445;SDS011;22472;50.848;-1.216;2024-02-14T01:43:19;34.90;;;5.35;;
36445;SDS011;22472;50.848;-1.216;2024-02-14T01:45:46;44.03;;;5.30;;
36445;SDS011;22472;50.848;-1.216;2024-02-14T01:48:14;54.28;;;6.05;;
36445;SDS011;22472;50.848;-1.216;2024-02-14T01:50:43;53.13;;;6.47;;
36445;SDS011;22472;50.848;-1.216;2024-02-14T01:53:11;52.80;;;6.75;;
36445;SDS011;22472;50.848;-1.216;2024-02-14T01:55:38;50.30;;;6.35;;
36445;SDS011;22472;50.848;-1.216;2024-02-14T01:58:07;49.33;;;6.55;;
36445;SDS011;22472;50.848;-1.216;2024-02-14T02:00:34;55.20;;;7.45;;
36445;SDS011;22472;50.848;-1.216;2024-02-14T02:03:01;50.30;;;6.22;;
36445;SDS011;22472;50.848;-1.216;2024-02-14T02:05:29;52.95;;;6.80;;
36445;SDS011;22472;50.848;-1.216;2024-02-14T02:07:56;53.33;;;6.95;;
36445;SDS011;22472;50.848;-1.216;2024-02-14T02:10:23;50.47;;;6.22;;
36445;SDS011;22472;50.848;-1.216;2024-02-14T02:12:57;51.83;;;6.68;;
36445;SDS011;22472;50.848;-1.216;2024-02-14T02:15:27;48.40;;;6.28;;
36445;SDS011;22472;50.848;-1.216;2024-02-14T02:17:56;46.83;;;6.13;;
36445;SDS011;22472;50.848;-1.216;2024-02-14T02:20:24;51.33;;;5.78;;
36445;SDS011;22472;50.848;-1.216;2024-02-14T02:22:54;46.00;;;5.75;;
36445;SDS011;22472;50.848;-1.216;2024-02-14T02:25:21;49.60;;;5.70;;
36445;SDS011;22472;50.848;-1.216;2024-02-14T02:27:51;50.10;;;5.25;;
36445;SDS011;22472;50.848;-1.216;2024-02-14T02:30:23;42.22;;;4.78;;
36445;SDS011;22472;50.848;-1.216;2024-02-14T02:32:50;33.70;;;4.50;;
36445;SDS011;22472;50.848;-1.216;2024-02-14T02:35:18;34.30;;;4.30;;
36445;SDS011;22472;50.848;-1.216;2024-02-14T02:37:46;36.60;;;4.47;;
36445;SDS011;22472;50.848;-1.216;2024-02-14T02:40:17;30.63;;;3.65;;
36445;SDS011;22472;50.848;-1.216;2024-02-14T02:42:46;33.22;;;3.40;;
36445;SDS011;22472;50.848;-1.216;2024-02-14T02:45:15;27.42;;;3.28;;
36445;SDS011;22472;50.848;-1.216;2024-02-14T02:47:42;28.33;;;3.55;;
36445;SDS011;22472;50.848;-1.216;2024-02-14T02:50:10;32.33;;;4.18;;
36445;SDS011;22472;50.848;-1.216;2024-02-14T02:52:37;44.17;;;5.82;;
36445;SDS011;22472;50.848;-1.216;2024-02-14T02:55:06;98.15;;;8.45;;
36445;SDS011;22472;50.848;-1.216;2024-02-14T02:57:34;69.93;;;7.22;;
36445;SDS011;22472;50.848;-1.216;2024-02-14T03:00:04;88.65;;;8.82;;
36445;SDS011;22472;50.848;-1.216;2024-02-14T03:05:09;40.67;;;7.00;;
36445;SDS011;22472;50.848;-1.216;2024-02-14T03:07:43;49.05;;;7.50;;
36445;SDS011;22472;50.848;-1.216;2024-02-14T03:10:12;41.60;;;7.15;;
36445;SDS011;22472;50.848;-1.216;2024-02-14T03:12:44;43.40;;;6.87;;
36445;SDS011;22472;50.848;-1.216;2024-02-14T03:15:11;38.80;;;6.57;;
36445;SDS011;22472;50.848;-1.216;2024-02-14T03:17:39;38.58;;;6.13;;
36445;SDS011;22472;50.848;-1.216;2024-02-14T03:20:07;28.40;;;5.10;;
36445;SDS011;22472;50.848;-1.216;2024-02-14T03:22:37;29.85;;;4.78;;
36445;SDS011;22472;50.848;-1.216;2024-02-14T03:25:07;24.67;;;4.05;;
36445;SDS011;22472;50.848;-1.216;2024-02-14T03:27:35;36.58;;;4.07;;
36445;SDS011;22472;50.848;-1.216;2024-02-14T03:30:04;25.85;;;3.60;;
36445;SDS011;22472;50.848;-1.216;2024-02-14T03:32:50;30.23;;;4.28;;
36445;SDS011;22472;50.848;-1.216;2024-02-14T03:35:18;34.55;;;4.93;;
36445;SDS011;22472;50.848;-1.216;2024-02-14T03:37:47;42.30;;;6.27;;
36445;SDS011;22472;50.848;-1.216;2024-02-14T03:40:14;40.78;;;6.22;;
36445;SDS011;22472;50.848;-1.216;2024-02-14T03:42:41;47.13;;;6.63;;
36445;SDS011;22472;50.848;-1.216;2024-02-14T03:45:10;51.58;;;5.97;;
36445;SDS011;22472;50.848;-1.216;2024-02-14T03:47:37;63.08;;;7.50;;
36445;SDS011;22472;50.848;-1.216;2024-02-14T03:50:07;50.70;;;6.53;;
36445;SDS011;22472;50.848;-1.216;2024-02-14T03:52:34;55.00;;;7.22;;
36445;SDS011;22472;50.848;-1.216;2024-02-14T03:55:02;62.50;;;7.80;;
36445;SDS011;22472;50.848;-1.216;2024-02-14T03:57:29;57.25;;;7.38;;
36445;SDS011;22472;50.848;-1.216;2024-02-14T03:59:59;61.55;;;7.75;;
36445;SDS011;22472;50.848;-1.216;2024-02-14T04:02:29;64.78;;;7.90;;
36445;SDS011;22472;50.848;-1.216;2024-02-14T04:04:57;57.42;;;6.93;;
36445;SDS011;22472;50.848;-1.216;2024-02-14T04:07:24;67.82;;;8.57;;
36445;SDS011;22472;50.848;-1.216;2024-02-14T04:09:51;55.65;;;7.05;;
36445;SDS011;22472;50.848;-1.216;2024-02-14T04:12:18;55.35;;;7.68;;
36445;SDS011;22472;50.848;-1.216;2024-02-14T04:14:46;73.20;;;8.13;;
36445;SDS011;22472;50.848;-1.216;2024-02-14T04:17:13;49.70;;;7.53;;
36445;SDS011;22472;50.848;-1.216;2024-02-14T04:19:42;52.47;;;6.95;;
36445;SDS011;22472;50.848;-1.216;2024-02-14T04:22:10;45.53;;;6.35;;
36445;SDS011;22472;50.848;-1.216;2024-02-14T04:24:37;41.13;;;6.28;;
36445;SDS011;22472;50.848;-1.216;2024-02-14T04:27:04;31.42;;;5.38;;
36445;SDS011;22472;50.848;-1.216;2024-02-14T04:29:31;29.45;;;4.28;;
36445;SDS011;22472;50.848;-1.216;2024-02-14T04:32:00;33.75;;;4.45;;
36445;SDS011;22472;50.848;-1.216;2024-02-14T04:34:27;41.42;;;4.82;;
36445;SDS011;22472;50.848;-1.216;2024-02-14T04:36:56;36.85;;;5.90;;
36445;SDS011;22472;50.848;-1.216;2024-02-14T04:39:23;47.83;;;6.90;;
36445;SDS011;22472;50.848;-1.216;2024-02-14T04:41:50;40.20;;;6.55;;
36445;SDS011;22472;50.848;-1.216;2024-02-14T04:44:19;31.27;;;5.97;;
36445;SDS011;22472;50.848;-1.216;2024-02-14T04:46:46;31.67;;;5.03;;
36445;SDS011;22472;50.848;-1.216;2024-02-14T04:49:14;37.15;;;4.65;;
36445;SDS011;22472;50.848;-1.216;2024-02-14T04:51:41;31.35;;;4.93;;
36445;SDS011;22472;50.848;-1.216;2024-02-14T04:54:10;28.92;;;4.82;;
36445;SDS011;22472;50.848;-1.216;2024-02-14T04:56:38;30.08;;;4.93;;
36445;SDS011;22472;50.848;-1.216;2024-02-14T04:59:06;43.03;;;5.72;;
36445;SDS011;22472;50.848;-1.216;2024-02-14T05:01:33;36.42;;;6.22;;
36445;SDS011;22472;50.848;-1.216;2024-02-14T05:04:01;32.67;;;6.63;;
36445;SDS011;22472;50.848;-1.216;2024-02-14T05:06:28;31.73;;;5.65;;
36445;SDS011;22472;50.848;-1.216;2024-02-14T05:08:56;35.72;;;6.10;;
36445;SDS011;22472;50.848;-1.216;2024-02-14T05:11:24;29.63;;;5.32;;
36445;SDS011;22472;50.848;-1.216;2024-02-14T05:13:52;28.23;;;5.40;;
36445;SDS011;22472;50.848;-1.216;2024-02-14T05:16:19;32.00;;;5.97;;
36445;SDS011;22472;50.848;-1.216;2024-02-14T05:18:46;25.20;;;4.57;;
36445;SDS011;22472;50.848;-1.216;2024-02-14T05:21:14;29.00;;;5.20;;
36445;SDS011;22472;50.848;-1.216;2024-02-14T05:23:42;23.60;;;4.13;;
36445;SDS011;22472;50.848;-1.216;2024-02-14T05:26:09;21.33;;;3.50;;
36445;SDS011;22472;50.848;-1.216;2024-02-14T05:28:37;24.55;;;3.88;;
36445;SDS011;22472;50.848;-1.216;2024-02-14T05:31:05;19.13;;;3.33;;
36445;SDS011;22472;50.848;-1.216;2024-02-14T05:33:32;16.02;;;2.75;;
36445;SDS011;22472;50.848;-1.216;2024-02-14T05:36:00;16.02;;;3.08;;
36445;SDS011;22472;50.848;-1.216;2024-02-14T05:38:28;14.30;;;2.45;;
36445;SDS011;22472;50.848;-1.216;2024-02-14T05:40:56;17.15;;;2.35;;
36445;SDS011;22472;50.848;-1.216;2024-02-14T05:43:23;14.07;;;1.80;;
36445;SDS011;22472;50.848;-1.216;2024-02-14T05:45:52;11.05;;;2.13;;
36445;SDS011;22472;50.848;-1.216;2024-02-14T05:48:19;12.68;;;1.55;;
36445;SDS011;22472;50.848;-1.216;2024-02-14T05:50:46;10.32;;;1.73;;
36445;SDS011;22472;50.848;-1.216;2024-02-14T05:53:14;13.20;;;1.92;;
36445;SDS011;22472;50.848;-1.216;2024-02-14T05:55:41;14.27;;;2.15;;
36445;SDS011;22472;50.848;-1.216;2024-02-14T05:58:08;13.68;;;2.15;;
36445;SDS011;22472;50.848;-1.216;2024-02-14T06:00:37;14.10;;;2.53;;
36445;SDS011;22472;50.848;-1.216;2024-02-14T06:03:05;16.52;;;2.78;;
36445;SDS011;22472;50.848;-1.216;2024-02-14T06:05:33;20.88;;;2.78;;
36445;SDS011;22472;50.848;-1.216;2024-02-14T06:08:01;25.48;;;3.65;;
36445;SDS011;22472;50.848;-1.216;2024-02-14T06:10:29;24.23;;;3.88;;
36445;SDS011;22472;50.848;-1.216;2024-02-14T06:12:56;32.63;;;4.70;;
36445;SDS011;22472;50.848;-1.216;2024-02-14T06:15:24;32.72;;;4.25;;
36445;SDS011;22472;50.848;-1.216;2024-02-14T06:17:51;34.67;;;5.30;;
36445;SDS011;22472;50.848;-1.216;2024-02-14T06:20:20;38.17;;;5.47;;
36445;SDS011;22472;50.848;-1.216;2024-02-14T06:22:47;49.40;;;6.47;;
36445;SDS011;22472;50.848;-1.216;2024-02-14T06:25:15;45.72;;;6.43;;
36445;SDS011;22472;50.848;-1.216;2024-02-14T06:27:42;46.95;;;6.82;;
36445;SDS011;22472;50.848;-1.216;2024-02-14T06:30:10;53.55;;;7.50;;
36445;SDS011;22472;50.848;-1.216;2024-02-14T06:32:38;72.60;;;7.97;;
36445;SDS011;22472;50.848;-1.216;2024-02-14T06:35:05;52.00;;;7.38;;
36445;SDS011;22472;50.848;-1.216;2024-02-14T06:37:34;61.47;;;7.78;;
36445;SDS011;22472;50.848;-1.216;2024-02-14T06:40:01;52.65;;;7.88;;
36445;SDS011;22472;50.848;-1.216;2024-02-14T06:42:28;83.28;;;8.43;;
36445;SDS011;22472;50.848;-1.216;2024-02-14T06:44:55;69.85;;;8.13;;
36445;SDS011;22472;50.848;-1.216;2024-02-14T06:47:23;66.10;;;8.45;;
36445;SDS011;22472;50.848;-1.216;2024-02-14T06:49:54;70.07;;;8.27;;
36445;SDS011;22472;50.848;-1.216;2024-02-14T06:52:22;69.55;;;9.23;;
36445;SDS011;22472;50.848;-1.216;2024-02-14T06:54:50;63.63;;;8.27;;
36445;SDS011;22472;50.848;-1.216;2024-02-14T06:57:17;70.40;;;8.68;;
36445;SDS011;22472;50.848;-1.216;2024-02-14T06:59:45;72.85;;;8.63;;
36445;SDS011;22472;50.848;-1.216;2024-02-14T07:02:12;56.67;;;8.13;;
36445;SDS011;22472;50.848;-1.216;2024-02-14T07:04:39;53.10;;;7.53;;
36445;SDS011;22472;50.848;-1.216;2024-02-14T07:07:06;51.17;;;7.10;;
36445;SDS011;22472;50.848;-1.216;2024-02-14T07:09:34;50.60;;;6.63;;
36445;SDS011;22472;50.848;-1.216;2024-02-14T07:12:05;43.20;;;5.55;;
36445;SDS011;22472;50.848;-1.216;2024-02-14T07:14:32;28.38;;;3.95;;
36445;SDS011;22472;50.848;-1.216;2024-02-14T07:16:59;26.40;;;3.20;;
36445;SDS011;22472;50.848;-1.216;2024-02-14T07:19:27;23.52;;;3.00;;
36445;SDS011;22472;50.848;-1.216;2024-02-14T07:21:54;13.65;;;2.35;;
36445;SDS011;22472;50.848;-1.216;2024-02-14T07:24:21;22.27;;;3.00;;
36445;SDS011;22472;50.848;-1.216;2024-02-14T07:26:49;23.83;;;2.60;;
36445;SDS011;22472;50.848;-1.216;2024-02-14T07:29:17;24.92;;;2.80;;
36445;SDS011;22472;50.848;-1.216;2024-02-14T07:31:44;16.60;;;2.65;;
36445;SDS011;22472;50.848;-1.216;2024-02-14T07:34:12;20.83;;;2.97;;
36445;SDS011;22472;50.848;-1.216;2024-02-14T07:36:39;26.33;;;3.60;;
36445;SDS011;22472;50.848;-1.216;2024-02-14T07:39:11;25.08;;;2.95;;
36445;SDS011;22472;50.848;-1.216;2024-02-14T07:41:38;26.13;;;3.25;;
36445;SDS011;22472;50.848;-1.216;2024-02-14T07:44:05;19.50;;;2.17;;
36445;SDS011;22472;50.848;-1.216;2024-02-14T07:46:34;18.20;;;2.20;;
36445;SDS011;22472;50.848;-1.216;2024-02-14T07:49:01;12.38;;;1.92;;
36445;SDS011;22472;50.848;-1.216;2024-02-14T07:51:29;16.35;;;1.40;;
36445;SDS011;22472;50.848;-1.216;2024-02-14T07:54:01;10.32;;;1.00;;
36445;SDS011;22472;50.848;-1.216;2024-02-14T07:56:29;16.27;;;1.65;;
36445;SDS011;22472;50.848;-1.216;2024-02-14T07:58:56;16.38;;;1.00;;
36445;SDS011;22472;50.848;-1.216;2024-02-14T08:01:23;12.00;;;1.02;;
36445;SDS011;22472;50.848;-1.216;2024-02-14T08:03:52;17.02;;;1.30;;
36445;SDS011;22472;50.848;-1.216;2024-02-14T08:06:19;15.80;;;1.30;;
36445;SDS011;22472;50.848;-1.216;2024-02-14T08:08:46;11.85;;;1.15;;
36445;SDS011;22472;50.848;-1.216;2024-02-14T08:11:16;11.13;;;1.13;;
36445;SDS011;22472;50.848;-1.216;2024-02-14T08:13:43;13.38;;;1.30;;
36445;SDS011;22472;50.848;-1.216;2024-02-14T08:16:11;10.80;;;1.10;;
36445;SDS011;22472;50.848;-1.216;2024-02-14T08:18:38;14.88;;;1.20;;
36445;SDS011;22472;50.848;-1.216;2024-02-14T08:21:10;13.93;;;1.52;;
36445;SDS011;22472;50.848;-1.216;2024-02-14T08:23:37;20.00;;;1.60;;
36445;SDS011;22472;50.848;-1.216;2024-02-14T08:26:06;22.17;;;2.08;;
36445;SDS011;22472;50.848;-1.216;2024-02-14T08:28:35;16.17;;;1.80;;
36445;SDS011;22472;50.848;-1.216;2024-02-14T08:31:03;18.50;;;2.03;;
36445;SDS011;22472;50.848;-1.216;2024-02-14T08:33:30;19.40;;;1.95;;
36445;SDS011;22472;50.848;-1.216;2024-02-14T08:35:57;16.92;;;1.58;;
36445;SDS011;22472;50.848;-1.216;2024-02-14T08:38:26;16.63;;;1.80;;
36445;SDS011;22472;50.848;-1.216;2024-02-14T08:40:53;19.08;;;2.00;;
36445;SDS011;22472;50.848;-1.216;2024-02-14T08:43:21;21.45;;;2.13;;
36445;SDS011;22472;50.848;-1.216;2024-02-14T08:45:50;24.58;;;2.22;;
36445;SDS011;22472;50.848;-1.216;2024-02-14T08:48:17;16.13;;;2.35;;
36445;SDS011;22472;50.848;-1.216;2024-02-14T08:50:45;23.88;;;2.65;;
36445;SDS011;22472;50.848;-1.216;2024-02-14T08:53:12;22.52;;;2.83;;
36445;SDS011;22472;50.848;-1.216;2024-02-14T08:55:41;31.23;;;2.92;;
36445;SDS011;22472;50.848;-1.216;2024-02-14T08:58:09;23.52;;;2.92;;
36445;SDS011;22472;50.848;-1.216;2024-02-14T09:00:41;23.90;;;2.80;;
36445;SDS011;22472;50.848;-1.216;2024-02-14T09:03:08;23.90;;;2.65;;
36445;SDS011;22472;50.848;-1.216;2024-02-14T09:05:35;20.48;;;2.65;;
36445;SDS011;22472;50.848;-1.216;2024-02-14T09:08:04;22.25;;;2.33;;
36445;SDS011;22472;50.848;-1.216;2024-02-14T09:10:31;26.52;;;2.72;;
36445;SDS011;22472;50.848;-1.216;2024-02-14T09:13:00;33.00;;;3.35;;
36445;SDS011;22472;50.848;-1.216;2024-02-14T09:15:27;36.67;;;4.00;;
36445;SDS011;22472;50.848;-1.216;2024-02-14T09:17:56;34.90;;;3.60;;
36445;SDS011;22472;50.848;-1.216;2024-02-14T09:20:25;29.30;;;3.53;;
36445;SDS011;22472;50.848;-1.216;2024-02-14T09:22:52;29.73;;;3.60;;
36445;SDS011;22472;50.848;-1.216;2024-02-14T09:25:19;32.17;;;4.00;;
36445;SDS011;22472;50.848;-1.216;2024-02-14T09:27:48;36.20;;;3.97;;
36445;SDS011;22472;50.848;-1.216;2024-02-14T09:30:17;43.50;;;4.18;;
36445;SDS011;22472;50.848;-1.216;2024-02-14T09:32:44;40.35;;;4.53;;
36445;SDS011;22472;50.848;-1.216;2024-02-14T09:35:12;43.60;;;5.32;;
36445;SDS011;22472;50.848;-1.216;2024-02-14T09:37:39;40.22;;;4.50;;
36445;SDS011;22472;50.848;-1.216;2024-02-14T09:40:07;36.10;;;4.35;;
36445;SDS011;22472;50.848;-1.216;2024-02-14T09:42:38;38.60;;;4.57;;
36445;SDS011;22472;50.848;-1.216;2024-02-14T09:45:06;39.17;;;4.80;;
36445;SDS011;22472;50.848;-1.216;2024-02-14T09:47:34;37.58;;;5.18;;
36445;SDS011;22472;50.848;-1.216;2024-02-14T09:50:02;38.20;;;4.68;;
36445;SDS011;22472;50.848;-1.216;2024-02-14T09:52:31;28.25;;;3.70;;
36445;SDS011;22472;50.848;-1.216;2024-02-14T09:54:59;36.42;;;4.63;;
36445;SDS011;22472;50.848;-1.216;2024-02-14T09:57:28;38.03;;;4.47;;
36445;SDS011;22472;50.848;-1.216;2024-02-14T09:59:56;35.60;;;4.35;;
36445;SDS011;22472;50.848;-1.216;2024-02-14T10:02:23;39.60;;;4.10;;
36445;SDS011;22472;50.848;-1.216;2024-02-14T10:04:52;34.42;;;3.92;;
36445;SDS011;22472;50.848;-1.216;2024-02-14T10:07:19;40.25;;;4.65;;
36445;SDS011;22472;50.848;-1.216;2024-02-14T10:09:46;35.05;;;4.07;;
36445;SDS011;22472;50.848;-1.216;2024-02-14T10:12:14;40.95;;;4.82;;
36445;SDS011;22472;50.848;-1.216;2024-02-14T10:14:41;38.38;;;4.53;;
36445;SDS011;22472;50.848;-1.216;2024-02-14T10:17:08;42.92;;;5.10;;
36445;SDS011;22472;50.848;-1.216;2024-02-14T10:19:35;33.80;;;4.75;;
36445;SDS011;22472;50.848;-1.216;2024-02-14T10:22:04;41.10;;;4.90;;
36445;SDS011;22472;50.848;-1.216;2024-02-14T10:24:32;41.47;;;5.38;;
36445;SDS011;22472;50.848;-1.216;2024-02-14T10:27:00;31.65;;;4.80;;
36445;SDS011;22472;50.848;-1.216;2024-02-14T10:29:27;36.08;;;5.10;;
36445;SDS011;22472;50.848;-1.216;2024-02-14T10:31:55;36.67;;;4.72;;
36445;SDS011;22472;50.848;-1.216;2024-02-14T10:34:24;38.08;;;4.82;;
36445;SDS011;22472;50.848;-1.216;2024-02-14T10:36:52;41.22;;;5.25;;
36445;SDS011;22472;50.848;-1.216;2024-02-14T10:39:21;38.13;;;5.00;;
36445;SDS011;22472;50.848;-1.216;2024-02-14T10:41:49;38.58;;;4.75;;
36445;SDS011;22472;50.848;-1.216;2024-02-14T10:44:16;34.15;;;4.57;;
36445;SDS011;22472;50.848;-1.216;2024-02-14T10:46:44;29.45;;;4.15;;
36445;SDS011;22472;50.848;-1.216;2024-02-14T10:49:11;39.40;;;4.70;;
36445;SDS011;22472;50.848;-1.216;2024-02-14T10:51:40;32.00;;;4.25;;
36445;SDS011;22472;50.848;-1.216;2024-02-14T10:54:13;32.78;;;4.15;;
36445;SDS011;22472;50.848;-1.216;2024-02-14T10:56:45;32.38;;;4.63;;
36445;SDS011;22472;50.848;-1.216;2024-02-14T10:59:15;31.80;;;4.20;;
36445;SDS011;22472;50.848;-1.216;2024-02-14T11:01:44;41.55;;;5.07;;
36445;SDS011;22472;50.848;-1.216;2024-02-14T11:04:12;34.90;;;4.90;;
36445;SDS011;22472;50.848;-1.216;2024-02-14T11:06:45;37.28;;;5.22;;
36445;SDS011;22472;50.848;-1.216;2024-02-14T11:09:13;37.40;;;4.93;;
36445;SDS011;22472;50.848;-1.216;2024-02-14T11:11:41;47.40;;;5.28;;
36445;SDS011;22472;50.848;-1.216;2024-02-14T11:14:10;39.28;;;4.97;;
36445;SDS011;22472;50.848;-1.216;2024-02-14T11:16:44;52.40;;;5.78;;
36445;SDS011;22472;50.848;-1.216;2024-02-14T11:19:12;46.27;;;5.27;;
36445;SDS011;22472;50.848;-1.216;2024-02-14T11:21:41;40.78;;;5.30;;
36445;SDS011;22472;50.848;-1.216;2024-02-14T11:24:10;52.25;;;5.95;;
36445;SDS011;22472;50.848;-1.216;2024-02-14T11:26:38;45.00;;;5.57;;
36445;SDS011;22472;50.848;-1.216;2024-02-14T11:29:05;41.85;;;4.90;;
36445;SDS011;22472;50.848;-1.216;2024-02-14T11:31:36;41.85;;;5.35;;
36445;SDS011;22472;50.848;-1.216;2024-02-14T11:34:03;44.90;;;5.60;;
36445;SDS011;22472;50.848;-1.216;2024-02-14T11:36:31;45.13;;;4.45;;
36445;SDS011;22472;50.848;-1.216;2024-02-14T11:39:02;47.40;;;4.88;;
36445;SDS011;22472;50.848;-1.216;2024-02-14T11:41:29;38.80;;;4.40;;
36445;SDS011;22472;50.848;-1.216;2024-02-14T11:43:56;28.27;;;3.95;;
36445;SDS011;22472;50.848;-1.216;2024-02-14T11:46:29;33.67;;;3.80;;
36445;SDS011;22472;50.848;-1.216;2024-02-14T11:48:57;27.80;;;3.28;;
36445;SDS011;22472;50.848;-1.216;2024-02-14T11:51:26;26.88;;;3.00;;
36445;SDS011;22472;50.848;-1.216;2024-02-14T11:53:53;23.17;;;3.28;;
36445;SDS011;22472;50.848;-1.216;2024-02-14T11:56:21;23.70;;;2.95;;
36445;SDS011;22472;50.848;-1.216;2024-02-14T11:58:48;28.38;;;3.38;;
36445;SDS011;22472;50.848;-1.216;2024-02-14T12:01:16;18.67;;;3.17;;
36445;SDS011;22472;50.848;-1.216;2024-02-14T12:03:43;27.20;;;3.30;;
36445;SDS011;22472;50.848;-1.216;2024-02-14T12:06:12;28.50;;;3.55;;
36445;SDS011;22472;50.848;-1.216;2024-02-14T12:08:40;27.83;;;3.20;;
36445;SDS011;22472;50.848;-1.216;2024-02-14T12:11:08;24.88;;;3.08;;
36445;SDS011;22472;50.848;-1.216;2024-02-14T12:13:36;21.92;;;2.92;;
36445;SDS011;22472;50.848;-1.216;2024-02-14T12:16:08;18.30;;;2.75;;
36445;SDS011;22472;50.848;-1.216;2024-02-14T12:18:35;19.38;;;2.42;;
36445;SDS011;22472;50.848;-1.216;2024-02-14T12:21:03;19.30;;;2.70;;
36445;SDS011;22472;50.848;-1.216;2024-02-14T12:23:34;20.30;;;2.80;;
36445;SDS011;22472;50.848;-1.216;2024-02-14T12:26:01;22.38;;;2.63;;
36445;SDS011;22472;50.848;-1.216;2024-02-14T12:28:29;21.27;;;2.50;;
36445;SDS011;22472;50.848;-1.216;2024-02-14T12:30:57;19.70;;;2.10;;
36445;SDS011;22472;50.848;-1.216;2024-02-14T12:33:25;21.90;;;2.42;;
36445;SDS011;22472;50.848;-1.216;2024-02-14T12:35:53;21.88;;;1.95;;
36445;SDS011;22472;50.848;-1.216;2024-02-14T12:38:21;15.10;;;2.15;;
36445;SDS011;22472;50.848;-1.216;2024-02-14T12:40:50;11.75;;;1.65;;
36445;SDS011;22472;50.848;-1.216;2024-02-14T12:43:19;16.80;;;1.80;;
36445;SDS011;22472;50.848;-1.216;2024-02-14T12:45:46;12.85;;;1.33;;
36445;SDS011;22472;50.848;-1.216;2024-02-14T12:48:21;13.82;;;1.30;;
36445;SDS011;22472;50.848;-1.216;2024-02-14T12:50:48;14.40;;;1.45;;
36445;SDS011;22472;50.848;-1.216;2024-02-14T12:53:17;13.40;;;1.20;;
36445;SDS011;22472;50.848;-1.216;2024-02-14T12:55:46;13.95;;;1.17;;
36445;SDS011;22472;50.848;-1.216;2024-02-14T12:58:14;15.27;;;1.45;;
36445;SDS011;22472;50.848;-1.216;2024-02-14T13:00:42;18.65;;;2.38;;
36445;SDS011;22472;50.848;-1.216;2024-02-14T13:03:10;18.27;;;2.17;;
36445;SDS011;22472;50.848;-1.216;2024-02-14T13:05:37;16.27;;;2.10;;
36445;SDS011;22472;50.848;-1.216;2024-02-14T13:08:05;20.08;;;2.80;;
36445;SDS011;22472;50.848;-1.216;2024-02-14T13:10:32;40.10;;;3.63;;
36445;SDS011;22472;50.848;-1.216;2024-02-14T13:12:59;59.20;;;4.03;;
36445;SDS011;22472;50.848;-1.216;2024-02-14T13:15:28;35.60;;;3.38;;
36445;SDS011;22472;50.848;-1.216;2024-02-14T13:17:55;44.70;;;3.90;;
36445;SDS011;22472;50.848;-1.216;2024-02-14T13:20:24;54.13;;;4.28;;
36445;SDS011;22472;50.848;-1.216;2024-02-14T13:22:51;30.77;;;3.47;;
36445;SDS011;22472;50.848;-1.216;2024-02-14T13:25:18;38.55;;;3.88;;
36445;SDS011;22472;50.848;-1.216;2024-02-14T13:27:46;21.38;;;2.80;;
36445;SDS011;22472;50.848;-1.216;2024-02-14T13:30:14;21.77;;;2.53;;
36445;SDS011;22472;50.848;-1.216;2024-02-14T13:32:45;23.80;;;2.63;;
36445;SDS011;22472;50.848;-1.216;2024-02-14T13:35:12;20.55;;;2.35;;
36445;SDS011;22472;50.848;-1.216;2024-02-14T13:37:39;25.73;;;2.80;;
36445;SDS011;22472;50.848;-1.216;2024-02-14T13:40:07;20.90;;;2.42;;
36445;SDS011;22472;50.848;-1.216;2024-02-14T13:42:35;24.50;;;3.20;;
36445;SDS011;22472;50.848;-1.216;2024-02-14T13:45:04;21.67;;;2.97;;
36445;SDS011;22472;50.848;-1.216;2024-02-14T13:47:35;24.08;;;3.00;;
36445;SDS011;22472;50.848;-1.216;2024-02-14T13:50:05;26.65;;;3.35;;
36445;SDS011;22472;50.848;-1.216;2024-02-14T13:52:33;30.83;;;3.97;;
36445;SDS011;22472;50.848;-1.216;2024-02-14T13:55:00;28.30;;;4.15;;
36445;SDS011;22472;50.848;-1.216;2024-02-14T13:57:27;43.08;;;4.75;;
36445;SDS011;22472;50.848;-1.216;2024-02-14T13:59:55;43.80;;;5.28;;
36445;SDS011;22472;50.848;-1.216;2024-02-14T14:02:23;57.97;;;6.10;;
36445;SDS011;22472;50.848;-1.216;2024-02-14T14:04:50;67.68;;;6.70;;
36445;SDS011;22472;50.848;-1.216;2024-02-14T14:07:19;50.95;;;6.20;;
36445;SDS011;22472;50.848;-1.216;2024-02-14T14:09:48;73.72;;;7.78;;
36445;SDS011;22472;50.848;-1.216;2024-02-14T14:12:16;66.03;;;6.63;;
36445;SDS011;22472;50.848;-1.216;2024-02-14T14:14:43;63.88;;;7.00;;
36445;SDS011;22472;50.848;-1.216;2024-02-14T14:17:10;58.60;;;7.00;;
36445;SDS011;22472;50.848;-1.216;2024-02-14T14:19:37;64.75;;;7.40;;
36445;SDS011;22472;50.848;-1.216;2024-02-14T14:22:04;84.97;;;7.45;;
36445;SDS011;22472;50.848;-1.216;2024-02-14T14:24:33;66.95;;;7.45;;
36445;SDS011;22472;50.848;-1.216;2024-02-14T14:27:00;71.13;;;8.38;;
36445;SDS011;22472;50.848;-1.216;2024-02-14T14:29:28;62.60;;;6.63;;